Time;durP1;ratioP1;P1;durP2;ratioP2;P2;SDS_P1;SDS_P2;PMS_P1;PMS_P2;Temp;Humidity;BMP_temperature;BMP_pressure;BME280_temperature;BME280_humidity;BME280_pressure;Samples;Min_cycle;Max_cycle;Signal;HPM_P1;HPM_P2
2023/12/02 00:01:06;;;;;;;10.55;6.30;;;0.10;99.90;;;;;;5026878;28;20230;-73
2023/12/02 00:03:33;;;;;;;14.32;7.03;;;0.10;99.90;;;;;;5029138;28;20202;-74
2023/12/02 00:05:59;;;;;;;10.02;7.45;;;0.10;99.90;;;;;;5028069;28;20202;-74
2023/12/02 00:08:26;;;;;;;8.52;6.50;;;0.10;99.90;;;;;;5028937;28;20205;-73
2023/12/02 00:10:54;;;;;;;14.65;7.65;;;0.10;99.90;;;;;;5028383;28;20234;-74
2023/12/02 00:13:21;;;;;;;10.07;5.63;;;0.10;99.90;;;;;;5029574;28;20206;-74
2023/12/02 04:30:37;;;;;;;5.88;3.45;;;-0.90;99.90;;;;;;6125930;22;21087;-92
2023/12/02 04:33:04;;;;;;;3.63;2.67;;;-0.80;99.90;;;;;;5094179;28;20211;-93
2023/12/02 04:35:31;;;;;;;6.32;3.80;;;-0.80;99.90;;;;;;5093975;28;20248;-93
2023/12/02 04:37:58;;;;;;;5.30;3.58;;;-0.80;99.90;;;;;;5094005;28;20652;-92
2023/12/02 04:40:25;;;;;;;7.03;5.03;;;-0.80;99.90;;;;;;5093588;28;20203;-92
2023/12/02 04:42:51;;;;;;;5.25;2.63;;;-0.80;99.90;;;;;;5074276;28;20219;-93
2023/12/02 04:45:18;;;;;;;8.80;4.80;;;-0.80;99.90;;;;;;5073311;28;20215;-92
2023/12/02 04:47:46;;;;;;;6.35;3.70;;;-0.80;99.90;;;;;;5072795;28;20221;-92
2023/12/02 04:50:13;;;;;;;5.35;3.60;;;-0.80;99.90;;;;;;5073381;28;20204;-93
2023/12/02 04:52:40;;;;;;;4.35;2.92;;;-0.90;99.90;;;;;;5073026;28;20231;-92
2023/12/02 04:55:08;;;;;;;7.22;4.22;;;-0.90;99.90;;;;;;5073630;28;20216;-93
2023/12/02 04:57:34;;;;;;;4.18;3.50;;;-0.90;99.90;;;;;;5074607;28;20196;-93
2023/12/02 05:00:03;;;;;;;5.47;3.13;;;-0.90;99.90;;;;;;5072103;28;20223;-92
2023/12/02 05:02:30;;;;;;;3.85;3.33;;;-0.90;99.90;;;;;;5072775;28;20315;-92
2023/12/02 05:04:58;;;;;;;4.70;3.67;;;-0.90;99.90;;;;;;5072714;28;20521;-94
2023/12/02 05:07:24;;;;;;;4.57;3.53;;;-0.90;99.90;;;;;;5072544;28;20208;-93
2023/12/02 05:09:51;;;;;;;4.90;3.10;;;-0.90;99.90;;;;;;5072692;28;20201;-94
2023/12/02 05:12:18;;;;;;;4.25;3.90;;;-0.90;99.90;;;;;;5072627;28;20231;-93
2023/12/02 05:14:45;;;;;;;4.53;4.00;;;-1.00;99.90;;;;;;5072876;28;20578;-93
2023/12/02 05:17:11;;;;;;;3.17;2.88;;;-1.00;99.90;;;;;;5071708;28;20205;-92
2023/12/02 05:19:38;;;;;;;4.07;2.60;;;-1.00;99.90;;;;;;5072577;28;20197;-92
2023/12/02 05:22:07;;;;;;;4.50;3.28;;;-1.00;99.90;;;;;;5071794;28;20530;-92
2023/12/02 05:24:33;;;;;;;5.72;3.70;;;-1.00;99.90;;;;;;5072198;28;20208;-91
2023/12/02 05:27:00;;;;;;;4.65;3.17;;;-0.90;99.90;;;;;;5072152;28;20236;-91
2023/12/02 05:29:27;;;;;;;4.60;3.30;;;-1.00;99.90;;;;;;5091179;28;20177;-91
2023/12/02 05:31:54;;;;;;;2.65;2.30;;;-1.00;99.90;;;;;;5088925;28;20228;-93
2023/12/02 05:34:21;;;;;;;4.50;3.85;;;-1.00;99.90;;;;;;5074110;28;20199;-92
2023/12/02 05:36:49;;;;;;;3.30;3.00;;;-1.00;99.90;;;;;;5072471;28;20196;-91
2023/12/02 05:39:17;;;;;;;4.28;3.47;;;-1.00;99.90;;;;;;5076248;28;20200;-92
2023/12/02 05:41:44;;;;;;;7.63;3.70;;;-1.00;99.90;;;;;;5076577;28;20220;-91
2023/12/02 05:44:11;;;;;;;5.65;3.28;;;-0.90;99.90;;;;;;5077168;28;20204;-91
2023/12/02 05:46:39;;;;;;;3.15;2.22;;;-1.00;99.90;;;;;;5075031;28;20223;-92
2023/12/02 05:49:06;;;;;;;6.00;3.63;;;-1.00;99.90;;;;;;5074451;28;20265;-92
2023/12/02 05:51:33;;;;;;;3.75;2.90;;;-1.10;99.90;;;;;;5075941;28;20303;-91
2023/12/02 05:54:00;;;;;;;5.65;4.38;;;-1.00;99.90;;;;;;5075670;28;20637;-92
2023/12/02 05:56:28;;;;;;;4.90;3.60;;;-1.00;99.90;;;;;;5075483;28;20226;-91
2023/12/02 05:58:55;;;;;;;4.68;4.10;;;-1.00;99.90;;;;;;5076102;28;20212;-91
2023/12/02 06:01:22;;;;;;;4.50;2.45;;;-1.00;99.90;;;;;;5075651;28;20227;-91
2023/12/02 06:03:49;;;;;;;3.28;2.22;;;-1.00;99.90;;;;;;5075224;28;20199;-91
2023/12/02 06:06:16;;;;;;;3.08;2.50;;;-1.10;99.90;;;;;;5076288;28;20212;-91
2023/12/02 06:08:43;;;;;;;4.32;3.45;;;-1.10;99.90;;;;;;5076411;28;20584;-91
2023/12/02 06:11:10;;;;;;;5.50;3.95;;;-1.10;99.90;;;;;;5067507;28;20232;-90
2023/12/02 06:13:38;;;;;;;3.83;2.60;;;-1.10;99.90;;;;;;5076135;28;20230;-90
2023/12/02 06:16:06;;;;;;;5.25;3.70;;;-1.20;99.90;;;;;;5075862;28;20216;-92
2023/12/02 06:18:33;;;;;;;9.07;4.25;;;-1.20;99.90;;;;;;5075676;28;20212;-91
2023/12/02 06:20:59;;;;;;;8.50;5.28;;;-1.20;99.90;;;;;;5074969;28;20602;-91
2023/12/02 06:23:26;;;;;;;8.32;4.43;;;-1.20;99.90;;;;;;5073807;28;20208;-92
2023/12/02 06:25:53;;;;;;;6.72;5.05;;;-1.20;99.90;;;;;;5073604;28;20208;-91
2023/12/02 06:28:20;;;;;;;6.15;4.32;;;-1.20;99.90;;;;;;5073097;28;20218;-92
2023/12/02 06:30:48;;;;;;;8.43;4.90;;;-1.20;99.90;;;;;;5072288;28;20224;-92
2023/12/02 06:33:15;;;;;;;5.22;3.78;;;-1.10;99.90;;;;;;5074132;28;20204;-91
2023/12/02 06:35:42;;;;;;;5.28;3.50;;;-1.20;99.90;;;;;;5072958;28;20204;-92
2023/12/02 06:38:09;;;;;;;6.95;3.55;;;-1.20;99.90;;;;;;5075018;28;20204;-91
2023/12/02 06:40:36;;;;;;;7.00;3.20;;;-1.20;99.90;;;;;;5076390;28;20204;-91
2023/12/02 06:43:02;;;;;;;4.30;3.50;;;-1.20;99.90;;;;;;5079679;28;20215;-92
2023/12/02 06:45:29;;;;;;;8.18;4.80;;;-1.20;99.90;;;;;;5078998;28;20207;-91
2023/12/02 06:47:57;;;;;;;3.58;3.28;;;-1.20;99.90;;;;;;5078799;28;20220;-92
2023/12/02 06:50:24;;;;;;;5.70;3.42;;;-1.20;99.90;;;;;;5079377;28;20196;-92
2023/12/02 06:52:51;;;;;;;5.68;3.65;;;-1.30;99.90;;;;;;5078531;28;20215;-91
2023/12/02 06:55:31;;;;;;;9.60;3.78;;;-1.30;99.90;;;;;;5078191;28;20714;-91
2023/12/02 06:57:58;;;;;;;5.55;3.80;;;-1.30;99.90;;;;;;5076489;28;20545;-90
2023/12/02 07:00:25;;;;;;;4.53;3.25;;;-1.20;99.90;;;;;;5077862;28;20212;-90
2023/12/02 07:02:52;;;;;;;9.20;4.25;;;-1.20;99.90;;;;;;5080724;28;20204;-92
2023/12/02 07:05:20;;;;;;;5.53;3.15;;;-1.20;99.90;;;;;;5082478;28;20199;-92
2023/12/02 07:07:49;;;;;;;5.20;3.10;;;-1.20;99.90;;;;;;5083793;28;20220;-92
2023/12/02 07:10:15;;;;;;;6.18;4.22;;;-1.20;99.90;;;;;;5083150;28;20204;-92
2023/12/02 07:12:42;;;;;;;6.28;3.85;;;-1.20;99.90;;;;;;5105693;22;20598;-73
2023/12/02 07:15:09;;;;;;;9.02;4.00;;;-1.20;99.90;;;;;;5090104;28;20218;-73
2023/12/02 07:17:36;;;;;;;7.00;4.40;;;-1.20;99.90;;;;;;5089628;28;20703;-73
2023/12/02 07:20:04;;;;;;;5.60;4.05;;;-1.10;99.90;;;;;;5089678;28;20230;-73
2023/12/02 07:22:32;;;;;;;9.55;4.13;;;-1.10;99.90;;;;;;5089988;28;20223;-73
2023/12/02 07:24:59;;;;;;;7.60;4.22;;;-1.10;99.90;;;;;;5089758;28;20801;-73
2023/12/02 07:27:25;;;;;;;6.55;3.95;;;-1.10;99.90;;;;;;5089344;28;20216;-73
2023/12/02 07:29:52;;;;;;;8.20;4.80;;;-1.20;99.90;;;;;;5089352;28;20196;-73
2023/12/02 07:32:19;;;;;;;5.97;3.83;;;-1.20;99.90;;;;;;5089688;28;20227;-73
2023/12/02 07:34:45;;;;;;;6.93;4.22;;;-1.30;99.90;;;;;;5089855;28;20204;-73
2023/12/02 07:37:12;;;;;;;12.48;5.85;;;-1.30;99.90;;;;;;5089147;28;20203;-73
2023/12/02 07:39:40;;;;;;;6.95;4.57;;;-1.30;99.90;;;;;;5089212;28;20207;-73
2023/12/02 07:42:07;;;;;;;8.85;4.15;;;-1.40;99.90;;;;;;5089608;28;20224;-73
2023/12/02 07:44:34;;;;;;;4.55;3.28;;;-1.40;99.90;;;;;;5089582;28;20197;-73
2023/12/02 07:47:01;;;;;;;12.23;5.78;;;-1.30;99.90;;;;;;5088442;28;20711;-73
2023/12/02 07:49:27;;;;;;;7.05;5.20;;;-1.30;99.90;;;;;;5089397;28;20199;-73
2023/12/02 07:51:54;;;;;;;8.57;4.35;;;-1.30;99.90;;;;;;5088270;28;20227;-73
2023/12/02 07:54:21;;;;;;;6.68;4.35;;;-1.30;99.90;;;;;;5089386;28;20203;-73
2023/12/02 07:56:49;;;;;;;4.05;3.65;;;-1.30;99.90;;;;;;5088394;28;20571;-73
2023/12/02 07:59:15;;;;;;;4.65;3.83;;;-1.30;99.90;;;;;;5089489;28;20203;-73
2023/12/02 08:01:42;;;;;;;6.85;4.13;;;-1.30;99.90;;;;;;5088629;28;20734;-72
2023/12/02 08:04:09;;;;;;;7.38;5.22;;;-1.30;99.90;;;;;;5089231;28;20211;-73
2023/12/02 08:06:36;;;;;;;4.88;4.13;;;-1.30;99.90;;;;;;5088134;28;20574;-73
2023/12/02 08:09:03;;;;;;;8.25;5.30;;;-1.30;99.90;;;;;;5087852;28;20311;-74
2023/12/02 08:11:29;;;;;;;7.15;5.03;;;-1.30;99.90;;;;;;5088849;28;20219;-74
2023/12/02 08:13:57;;;;;;;6.38;3.80;;;-1.40;99.90;;;;;;5088398;28;20212;-73
2023/12/02 08:16:24;;;;;;;7.55;5.05;;;-1.40;99.90;;;;;;5088051;28;20207;-73
2023/12/02 08:18:51;;;;;;;7.70;4.88;;;-1.30;99.90;;;;;;5088192;28;20676;-73
2023/12/02 08:21:17;;;;;;;7.85;4.07;;;-1.40;99.90;;;;;;5088813;28;20301;-73
2023/12/02 08:23:44;;;;;;;9.38;6.63;;;-1.40;99.90;;;;;;5087670;28;20200;-71
2023/12/02 08:26:11;;;;;;;9.82;4.80;;;-1.40;99.90;;;;;;5086696;28;20569;-73
2023/12/02 08:28:37;;;;;;;8.05;4.30;;;-1.30;99.90;;;;;;5087803;28;20220;-73
2023/12/02 08:31:06;;;;;;;8.50;4.90;;;-1.40;99.90;;;;;;5088064;28;20223;-73
2023/12/02 08:33:33;;;;;;;13.35;6.30;;;-1.40;99.90;;;;;;5087950;28;20214;-73
2023/12/02 08:35:59;;;;;;;9.50;5.25;;;-1.50;99.90;;;;;;5087948;28;20200;-73
2023/12/02 08:38:26;;;;;;;6.55;5.07;;;-1.40;99.90;;;;;;5088554;28;20196;-75
2023/12/02 08:40:53;;;;;;;9.57;4.38;;;-1.40;99.90;;;;;;5088200;28;20231;-74
2023/12/02 08:43:19;;;;;;;5.10;3.05;;;-1.40;99.90;;;;;;5088388;28;20240;-75
2023/12/02 08:45:46;;;;;;;11.65;5.65;;;-1.30;99.90;;;;;;5087953;28;20196;-75
2023/12/02 08:48:14;;;;;;;10.25;4.53;;;-1.30;99.90;;;;;;5088426;28;20220;-74
2023/12/02 08:50:41;;;;;;;7.15;5.15;;;-1.40;99.90;;;;;;5087034;28;20602;-74
2023/12/02 08:53:08;;;;;;;10.45;6.05;;;-1.40;99.90;;;;;;5088519;28;20211;-74
2023/12/02 08:55:35;;;;;;;5.72;4.18;;;-1.30;99.90;;;;;;5087774;28;20583;-75
2023/12/02 08:58:04;;;;;;;8.43;4.57;;;-1.40;99.90;;;;;;5087583;28;20196;-75
2023/12/02 09:00:32;;;;;;;4.80;3.90;;;-1.40;99.90;;;;;;5087532;28;20200;-75
2023/12/02 09:02:59;;;;;;;9.85;4.85;;;-1.50;99.90;;;;;;5087913;28;20199;-74
2023/12/02 09:05:27;;;;;;;7.07;4.85;;;-1.50;99.90;;;;;;5087507;28;20196;-74
2023/12/02 09:07:55;;;;;;;3.60;3.03;;;-1.50;99.90;;;;;;5086654;28;20219;-74
2023/12/02 09:10:23;;;;;;;4.55;3.15;;;-1.50;99.90;;;;;;5087901;28;20660;-75
2023/12/02 09:12:50;;;;;;;6.53;4.40;;;-1.60;99.90;;;;;;5087456;28;20291;-75
2023/12/02 09:15:44;;;;;;;5.15;3.75;;;-1.60;99.90;;;;;;5087652;28;20203;-74
2023/12/02 09:18:13;;;;;;;7.22;5.35;;;-1.50;99.90;;;;;;5050914;28;20626;-74
2023/12/02 09:20:48;;;;;;;3.88;3.58;;;-1.50;99.90;;;;;;5086837;28;20309;-74
2023/12/02 09:23:16;;;;;;;5.28;3.80;;;-1.50;99.90;;;;;;5086590;28;20199;-74
2023/12/02 09:25:45;;;;;;;5.25;3.60;;;-1.40;99.90;;;;;;5086886;28;20635;-74
2023/12/02 09:28:16;;;;;;;5.38;4.20;;;-1.30;99.90;;;;;;5086094;28;20216;-74
2023/12/02 09:30:53;;;;;;;7.55;5.00;;;-1.30;99.90;;;;;;5086510;28;20223;-73
2023/12/02 09:33:20;;;;;;;8.55;4.32;;;-1.20;99.90;;;;;;5087086;28;20206;-74
2023/12/02 09:35:52;;;;;;;5.80;3.97;;;-1.20;99.90;;;;;;5084610;28;20242;-74
2023/12/02 09:38:19;;;;;;;3.42;3.13;;;-1.30;99.90;;;;;;5085336;28;20265;-74
2023/12/02 09:41:09;;;;;;;4.82;4.07;;;-1.20;99.90;;;;;;5086866;28;20216;-74
2023/12/02 09:43:41;;;;;;;4.32;3.92;;;-1.20;99.90;;;;;;5083321;28;20230;-74
2023/12/02 09:46:27;;;;;;;7.47;4.55;;;-1.20;99.90;;;;;;5082795;28;20212;-74
2023/12/02 09:49:15;;;;;;;6.00;4.40;;;-1.20;99.90;;;;;;5086198;28;20314;-74
2023/12/02 09:51:57;;;;;;;7.97;4.57;;;-1.20;99.90;;;;;;5077812;28;20224;-72
2023/12/02 09:54:32;;;;;;;6.72;4.10;;;-1.20;99.90;;;;;;5088089;28;20588;-75
2023/12/02 09:57:07;;;;;;;5.35;3.75;;;-1.20;99.90;;;;;;5087618;28;20222;-72
2023/12/02 09:59:43;;;;;;;5.55;3.55;;;-1.30;99.90;;;;;;5088506;28;20218;-72
2023/12/02 10:02:23;;;;;;;4.00;3.38;;;-1.20;99.90;;;;;;5088637;28;20231;-72
2023/12/02 10:05:00;;;;;;;6.93;3.90;;;-1.10;99.90;;;;;;5085905;28;20230;-74
2023/12/02 10:07:40;;;;;;;9.40;3.90;;;-1.10;99.90;;;;;;5085033;28;20272;-74
2023/12/02 10:10:09;;;;;;;7.78;4.47;;;-1.00;99.90;;;;;;5086531;28;20200;-74
2023/12/02 10:12:49;;;;;;;5.25;3.45;;;-1.10;99.90;;;;;;5086199;28;20231;-74
2023/12/02 10:15:20;;;;;;;5.85;3.75;;;-1.10;99.90;;;;;;5085640;28;20580;-75
2023/12/02 10:17:51;;;;;;;4.15;3.30;;;-1.10;99.90;;;;;;5085506;28;20192;-74
2023/12/02 10:20:25;;;;;;;5.50;4.03;;;-1.00;99.90;;;;;;5085848;28;20214;-74
2023/12/02 10:22:59;;;;;;;6.35;4.20;;;-1.10;99.90;;;;;;5086108;28;20288;-74
2023/12/02 10:25:34;;;;;;;6.50;3.70;;;-1.10;99.90;;;;;;5084205;28;20264;-74
2023/12/02 10:28:12;;;;;;;5.35;3.55;;;-1.10;99.90;;;;;;5085469;28;20288;-74
2023/12/02 10:30:46;;;;;;;7.63;4.22;;;-1.10;99.90;;;;;;5086144;28;20231;-74
2023/12/02 10:33:26;;;;;;;3.72;3.33;;;-1.10;99.90;;;;;;5086638;28;20203;-74
2023/12/02 10:36:01;;;;;;;4.00;3.03;;;-1.20;99.90;;;;;;5085370;28;20211;-74
2023/12/02 10:38:44;;;;;;;5.68;3.80;;;-1.20;99.90;;;;;;5086597;28;20641;-75
2023/12/02 10:41:17;;;;;;;4.35;3.22;;;-1.20;99.90;;;;;;5086385;28;20219;-75
2023/12/02 10:43:47;;;;;;;3.10;2.65;;;-1.20;99.90;;;;;;5087168;28;20261;-75
2023/12/02 10:46:15;;;;;;;8.43;4.82;;;-1.10;99.90;;;;;;5086835;28;20265;-74
2023/12/02 10:48:44;;;;;;;6.13;5.07;;;-1.10;99.90;;;;;;5086131;28;20219;-74
2023/12/02 10:51:15;;;;;;;6.00;4.55;;;-1.20;99.90;;;;;;5085797;28;20219;-75
2023/12/02 10:53:45;;;;;;;6.35;4.28;;;-1.20;99.90;;;;;;5087324;28;20200;-74
2023/12/02 10:56:20;;;;;;;7.25;4.93;;;-1.20;99.90;;;;;;5086214;28;20203;-75
2023/12/02 10:58:49;;;;;;;9.20;4.22;;;-1.10;99.90;;;;;;5086195;28;20198;-74
2023/12/02 11:01:22;;;;;;;9.13;4.68;;;-1.10;99.90;;;;;;5086588;28;20232;-75
2023/12/02 11:03:52;;;;;;;5.10;3.47;;;-1.10;99.90;;;;;;5086330;28;20203;-75
2023/12/02 11:06:27;;;;;;;4.57;3.25;;;-1.10;99.90;;;;;;5086880;28;20290;-74
2023/12/02 11:09:10;;;;;;;4.32;3.92;;;-1.10;99.90;;;;;;5086414;28;20472;-74
2023/12/02 11:12:03;;;;;;;5.72;5.15;;;-1.00;99.90;;;;;;5086751;28;20648;-74
2023/12/02 11:14:38;;;;;;;7.22;4.13;;;-1.00;99.90;;;;;;5085641;28;20207;-74
2023/12/02 11:17:11;;;;;;;4.40;3.75;;;-1.00;99.90;;;;;;5085334;28;20204;-74
2023/12/02 11:19:56;;;;;;;6.55;4.40;;;-1.00;99.90;;;;;;5087030;28;20203;-73
2023/12/02 11:22:52;;;;;;;3.90;3.60;;;-1.00;99.90;;;;;;5085589;28;20594;-74
2023/12/02 11:25:40;;;;;;;6.38;4.00;;;-1.00;99.90;;;;;;5084394;28;20200;-74
2023/12/02 11:28:16;;;;;;;4.53;3.10;;;-1.10;99.90;;;;;;5087967;28;20218;-74
2023/12/02 11:31:09;;;;;;;6.20;3.80;;;-1.10;99.90;;;;;;5089882;28;20667;-74
2023/12/02 11:34:00;;;;;;;8.00;5.35;;;-1.10;99.90;;;;;;5087991;28;20587;-74
2023/12/02 11:36:38;;;;;;;4.65;3.10;;;-1.20;99.90;;;;;;5089711;28;20208;-74
2023/12/02 11:39:20;;;;;;;4.35;3.72;;;-1.20;99.90;;;;;;5090085;28;20754;-74
2023/12/02 11:41:56;;;;;;;3.75;2.90;;;-1.30;99.90;;;;;;5090289;28;20232;-74
2023/12/02 11:44:36;;;;;;;4.18;2.45;;;-1.30;99.90;;;;;;5090271;28;20203;-75
2023/12/02 11:47:21;;;;;;;3.53;3.20;;;-1.30;99.90;;;;;;5088283;28;20218;-75
2023/12/02 11:50:03;;;;;;;4.43;4.03;;;-1.30;99.90;;;;;;5089489;28;20241;-74
2023/12/02 11:52:42;;;;;;;3.65;3.08;;;-1.30;99.90;;;;;;5089729;28;20223;-74
2023/12/02 11:55:17;;;;;;;2.95;2.65;;;-1.40;99.90;;;;;;5089370;28;20210;-75
2023/12/02 11:57:58;;;;;;;4.55;3.20;;;-1.40;99.90;;;;;;5089479;28;20272;-75
2023/12/02 12:00:36;;;;;;;4.95;3.42;;;-1.40;99.90;;;;;;5089228;28;20207;-74
2023/12/02 12:03:22;;;;;;;3.67;2.70;;;-1.40;99.90;;;;;;5089466;28;20234;-75
2023/12/02 12:05:57;;;;;;;3.53;2.58;;;-1.40;99.90;;;;;;5087942;28;20199;-74
2023/12/02 12:08:34;;;;;;;5.25;3.30;;;-1.50;99.90;;;;;;5087940;28;20319;-75
2023/12/02 12:11:03;;;;;;;6.78;3.13;;;-1.40;99.90;;;;;;5089202;28;20219;-75
2023/12/02 12:13:33;;;;;;;5.25;3.70;;;-1.50;99.90;;;;;;5089439;28;20574;-75
2023/12/02 12:16:00;;;;;;;3.33;3.03;;;-1.50;99.90;;;;;;5088937;28;20237;-75
2023/12/02 12:18:27;;;;;;;4.10;3.22;;;-1.50;99.90;;;;;;5089231;28;20207;-75
2023/12/02 12:20:55;;;;;;;3.28;2.70;;;-1.50;99.90;;;;;;5089034;28;20230;-75
2023/12/02 12:23:24;;;;;;;6.70;3.55;;;-1.50;99.90;;;;;;5089845;28;20199;-75
2023/12/02 12:25:51;;;;;;;4.47;3.75;;;-1.50;99.90;;;;;;5088777;28;20203;-74
2023/12/02 12:28:18;;;;;;;3.88;3.00;;;-1.50;99.90;;;;;;5089297;28;20284;-74
2023/12/02 12:30:47;;;;;;;5.55;3.72;;;-1.50;99.90;;;;;;5088794;28;20226;-75
2023/12/02 12:33:19;;;;;;;6.10;3.45;;;-1.60;99.90;;;;;;5087547;28;20202;-74
2023/12/02 12:35:46;;;;;;;2.63;2.42;;;-1.60;99.90;;;;;;5089084;28;20256;-75
2023/12/02 12:38:13;;;;;;;6.10;2.80;;;-1.70;99.90;;;;;;5087858;28;20287;-74
2023/12/02 12:40:41;;;;;;;6.00;3.03;;;-1.70;99.90;;;;;;5088988;28;20673;-74
2023/12/02 12:43:09;;;;;;;4.25;2.83;;;-1.60;99.90;;;;;;5089304;28;20210;-74
2023/12/02 12:45:35;;;;;;;4.45;3.60;;;-1.60;99.90;;;;;;5093177;28;20582;-74
2023/12/02 12:48:05;;;;;;;2.90;2.67;;;-1.60;99.90;;;;;;5089996;28;20212;-74
2023/12/02 12:50:32;;;;;;;4.18;3.17;;;-1.60;99.90;;;;;;5088862;28;20214;-74
2023/12/02 12:53:09;;;;;;;3.28;2.53;;;-1.60;99.90;;;;;;5088443;28;20204;-74
2023/12/02 12:55:38;;;;;;;5.40;3.53;;;-1.60;99.90;;;;;;5088782;28;20211;-75
2023/12/02 12:58:07;;;;;;;5.90;4.25;;;-1.60;99.90;;;;;;5087755;28;20317;-74
2023/12/02 13:00:37;;;;;;;5.43;3.55;;;-1.50;99.90;;;;;;5088557;28;20483;-73
2023/12/02 13:03:25;;;;;;;3.13;2.85;;;-1.50;99.90;;;;;;5088175;28;20591;-74
2023/12/02 13:06:04;;;;;;;2.78;2.53;;;-1.60;99.90;;;;;;5088206;28;20576;-74
2023/12/02 13:08:34;;;;;;;3.72;3.35;;;-1.60;99.90;;;;;;5088047;28;20922;-74
2023/12/02 13:11:06;;;;;;;5.20;3.50;;;-1.60;99.90;;;;;;5087476;28;20769;-74
2023/12/02 13:13:36;;;;;;;2.95;2.70;;;-1.60;99.90;;;;;;5086678;28;20204;-74
2023/12/02 13:16:08;;;;;;;4.22;3.60;;;-1.50;99.90;;;;;;5087039;28;20300;-74
2023/12/02 13:18:37;;;;;;;2.88;2.67;;;-1.60;99.90;;;;;;5087747;28;20204;-74
2023/12/02 13:21:05;;;;;;;5.47;3.88;;;-1.60;99.90;;;;;;5087631;28;20609;-74
2023/12/02 13:23:33;;;;;;;5.88;3.30;;;-1.70;99.90;;;;;;5088460;28;20573;-74
2023/12/02 13:26:03;;;;;;;4.88;3.55;;;-1.70;99.90;;;;;;5088338;28;20637;-74
2023/12/02 13:28:37;;;;;;;3.50;2.97;;;-1.80;99.90;;;;;;5087593;28;20231;-74
2023/12/02 13:31:05;;;;;;;3.65;2.60;;;-1.70;99.90;;;;;;5087865;28;20273;-73
2023/12/02 13:33:50;;;;;;;4.40;3.63;;;-1.70;99.90;;;;;;5087935;28;20210;-73
2023/12/02 13:36:22;;;;;;;3.80;2.80;;;-1.70;99.90;;;;;;5081995;28;20212;-74
2023/12/02 13:38:57;;;;;;;2.78;2.58;;;-1.70;99.90;;;;;;5088299;28;20202;-73
2023/12/02 13:41:46;;;;;;;4.28;2.90;;;-1.70;99.90;;;;;;5088636;28;20225;-74
2023/12/02 13:44:15;;;;;;;2.80;2.50;;;-1.80;99.90;;;;;;5088166;28;20216;-74
2023/12/02 13:46:56;;;;;;;3.05;2.63;;;-1.80;99.90;;;;;;5087680;28;20208;-73
2023/12/02 13:49:29;;;;;;;13.20;2.85;;;-1.90;99.90;;;;;;5089202;28;20337;-74
2023/12/02 13:52:04;;;;;;;4.53;3.80;;;-1.90;99.90;;;;;;5088194;28;20540;-74
2023/12/02 13:54:40;;;;;;;3.15;2.60;;;-1.90;99.90;;;;;;5088320;28;20652;-73
2023/12/02 13:57:20;;;;;;;2.67;2.00;;;-2.00;99.90;;;;;;5087637;28;20294;-74
2023/12/02 13:59:48;;;;;;;3.47;3.17;;;-2.00;99.90;;;;;;5088542;28;20758;-74
2023/12/02 14:02:25;;;;;;;2.72;2.53;;;-2.00;99.90;;;;;;5087729;28;20220;-74
2023/12/02 14:05:05;;;;;;;3.60;2.53;;;-2.00;99.90;;;;;;5087330;28;20211;-74
2023/12/02 14:07:34;;;;;;;4.95;2.90;;;-2.00;99.90;;;;;;5087265;28;20576;-73
2023/12/02 14:10:06;;;;;;;3.17;2.33;;;-2.10;99.90;;;;;;5087486;28;20707;-73
2023/12/02 14:12:57;;;;;;;4.15;3.03;;;-2.10;99.90;;;;;;5091002;28;20284;-74
2023/12/02 14:15:42;;;;;;;5.35;3.72;;;-2.10;99.90;;;;;;5087441;28;20238;-74
2023/12/02 14:18:29;;;;;;;2.63;2.30;;;-2.00;99.90;;;;;;5087209;28;20616;-74
2023/12/02 14:21:10;;;;;;;5.72;4.03;;;-2.00;99.90;;;;;;5087367;28;20616;-74
2023/12/02 14:23:53;;;;;;;3.20;2.90;;;-2.00;99.90;;;;;;5087760;28;20600;-74
2023/12/02 14:26:51;;;;;;;3.47;3.15;;;-2.00;99.90;;;;;;5087431;28;20223;-73
2023/12/02 14:29:35;;;;;;;3.78;3.25;;;-2.00;99.90;;;;;;5087503;28;20222;-74
2023/12/02 14:32:17;;;;;;;2.47;2.10;;;-2.10;99.90;;;;;;5087808;28;20222;-74
2023/12/02 14:35:04;;;;;;;3.25;2.20;;;-2.10;99.90;;;;;;5086413;28;20227;-74
2023/12/02 14:38:15;;;;;;;3.78;2.85;;;-2.10;99.90;;;;;;5086920;28;20195;-73
2023/12/02 14:40:56;;;;;;;3.55;3.25;;;-2.30;99.90;;;;;;5079006;28;20252;-73
2023/12/02 14:43:33;;;;;;;3.38;2.83;;;-2.30;99.90;;;;;;5086119;28;20196;-74
2023/12/02 14:46:01;;;;;;;4.43;3.47;;;-2.30;99.90;;;;;;5086478;28;20813;-73
2023/12/02 14:48:31;;;;;;;4.25;3.20;;;-2.30;99.90;;;;;;5086233;28;20214;-73
2023/12/02 14:51:03;;;;;;;4.45;3.83;;;-2.40;99.90;;;;;;5086353;28;20269;-74
2023/12/02 14:53:35;;;;;;;5.50;3.40;;;-2.40;99.90;;;;;;5086609;28;20709;-73
2023/12/02 14:56:40;;;;;;;4.63;4.05;;;-2.40;99.90;;;;;;5086441;28;20210;-74
2023/12/02 14:59:08;;;;;;;6.38;3.78;;;-2.40;99.90;;;;;;5085919;28;20300;-74
2023/12/02 15:01:37;;;;;;;4.13;3.03;;;-2.40;99.90;;;;;;5088354;28;20730;-74
2023/12/02 15:04:06;;;;;;;7.53;3.85;;;-2.40;99.90;;;;;;5090391;28;20667;-73
2023/12/02 15:06:34;;;;;;;5.10;4.53;;;-2.40;99.90;;;;;;5090038;28;20207;-73
2023/12/02 15:09:04;;;;;;;4.47;2.50;;;-2.50;99.90;;;;;;5089892;28;20580;-73
2023/12/02 15:11:32;;;;;;;6.40;4.50;;;-2.50;99.90;;;;;;5089654;28;20224;-74
2023/12/02 15:13:59;;;;;;;5.60;4.10;;;-2.50;99.90;;;;;;5090205;28;20204;-73
2023/12/02 15:16:27;;;;;;;12.80;5.32;;;-2.50;99.90;;;;;;5090202;28;20588;-73
2023/12/02 15:18:54;;;;;;;5.00;3.72;;;-2.50;99.90;;;;;;5090005;28;20607;-74
2023/12/02 15:21:21;;;;;;;5.25;3.30;;;-2.60;99.90;;;;;;5089459;28;20230;-74
2023/12/02 15:23:47;;;;;;;5.53;3.83;;;-2.60;99.90;;;;;;5089011;28;20204;-74
2023/12/02 15:26:16;;;;;;;7.28;5.55;;;-2.60;99.90;;;;;;5089141;28;20211;-74
2023/12/02 15:28:54;;;;;;;6.22;4.03;;;-2.50;99.90;;;;;;5089929;28;20203;-73
2023/12/02 15:31:32;;;;;;;5.40;3.40;;;-2.50;99.90;;;;;;5089635;28;20211;-74
2023/12/02 15:34:04;;;;;;;5.63;4.50;;;-2.60;99.90;;;;;;5089693;28;20587;-74
2023/12/02 15:36:31;;;;;;;5.18;3.83;;;-2.60;99.90;;;;;;5089167;28;20212;-74
2023/12/02 15:38:58;;;;;;;8.98;6.22;;;-2.60;99.90;;;;;;5089899;28;20265;-74
2023/12/02 15:41:27;;;;;;;7.43;4.25;;;-2.60;99.90;;;;;;5089424;28;20216;-74
2023/12/02 15:43:58;;;;;;;5.38;4.05;;;-2.50;99.90;;;;;;5089950;28;20208;-74
2023/12/02 15:46:26;;;;;;;4.93;3.83;;;-2.50;99.90;;;;;;5089644;28;20300;-74
2023/12/02 15:48:56;;;;;;;7.00;4.35;;;-2.50;99.90;;;;;;5089684;28;20290;-73
2023/12/02 15:51:22;;;;;;;7.45;4.68;;;-2.50;99.90;;;;;;5087890;28;20215;-74
2023/12/02 15:53:51;;;;;;;6.38;5.18;;;-2.50;99.90;;;;;;5089868;28;20225;-74
2023/12/02 15:56:20;;;;;;;8.80;5.13;;;-2.50;99.90;;;;;;5089027;28;20220;-74
2023/12/02 15:58:50;;;;;;;5.40;4.88;;;-2.50;99.90;;;;;;5085407;28;20207;-74
2023/12/02 16:01:18;;;;;;;6.82;3.92;;;-2.50;99.90;;;;;;5086321;28;20215;-74
2023/12/02 16:03:46;;;;;;;8.63;5.35;;;-2.50;99.90;;;;;;5085707;28;20612;-74
2023/12/02 16:06:14;;;;;;;8.85;3.90;;;-2.50;99.90;;;;;;5085458;28;20585;-74
2023/12/02 16:08:41;;;;;;;5.15;3.60;;;-2.50;99.90;;;;;;5085146;28;20231;-74
2023/12/02 16:11:09;;;;;;;4.20;3.60;;;-2.50;99.90;;;;;;5085067;28;20228;-74
2023/12/02 16:13:40;;;;;;;4.32;3.95;;;-2.50;99.90;;;;;;5084901;28;20215;-74
2023/12/02 16:16:11;;;;;;;4.40;3.78;;;-2.50;99.90;;;;;;5085158;28;20600;-73
2023/12/02 16:18:39;;;;;;;4.65;3.88;;;-2.60;99.90;;;;;;5085313;28;20211;-74
2023/12/02 16:21:09;;;;;;;5.25;3.60;;;-2.60;99.90;;;;;;5085516;28;20224;-74
2023/12/02 16:23:38;;;;;;;5.28;3.95;;;-2.60;99.90;;;;;;5085943;28;20207;-74
2023/12/02 16:26:06;;;;;;;6.45;5.13;;;-2.60;99.90;;;;;;5085569;28;20669;-73
2023/12/02 16:28:33;;;;;;;6.93;4.07;;;-2.60;99.90;;;;;;5084797;28;20583;-74
2023/12/02 16:31:00;;;;;;;3.85;2.58;;;-2.60;99.90;;;;;;5085275;28;20430;-74
2023/12/02 16:33:28;;;;;;;4.70;4.22;;;-2.70;99.90;;;;;;5085656;28;20215;-73
2023/12/02 16:35:55;;;;;;;4.95;4.05;;;-2.70;99.90;;;;;;5085267;28;20211;-74
2023/12/02 16:38:22;;;;;;;4.20;3.30;;;-2.80;99.90;;;;;;5085100;28;20204;-74
2023/12/02 16:40:53;;;;;;;3.95;3.25;;;-2.80;99.90;;;;;;5085198;28;20220;-73
2023/12/02 16:43:21;;;;;;;6.82;4.40;;;-2.70;99.90;;;;;;5085118;28;20200;-74
2023/12/02 16:45:51;;;;;;;5.45;2.95;;;-2.70;99.90;;;;;;5085851;28;20204;-74
2023/12/02 16:48:18;;;;;;;5.03;3.47;;;-2.80;99.90;;;;;;5083825;28;20208;-74
2023/12/02 16:50:46;;;;;;;2.97;2.78;;;-2.80;99.90;;;;;;5086001;28;20231;-74
2023/12/02 16:53:17;;;;;;;7.45;5.13;;;-2.80;99.90;;;;;;5085759;28;20648;-74
2023/12/02 16:55:52;;;;;;;4.53;3.15;;;-2.80;99.90;;;;;;5084524;28;20200;-74
2023/12/02 16:58:24;;;;;;;3.95;3.55;;;-2.80;99.90;;;;;;5084631;28;20235;-74
2023/12/02 17:01:02;;;;;;;5.82;3.72;;;-2.90;99.90;;;;;;5085914;28;20219;-74
2023/12/02 17:03:31;;;;;;;4.07;2.80;;;-2.90;99.90;;;;;;5085133;28;20248;-74
2023/12/02 17:06:53;;;;;;;4.00;2.40;;;-2.90;99.90;;;;;;5085380;28;20702;-74
2023/12/02 17:09:35;;;;;;;4.90;3.15;;;-2.90;99.90;;;;;;5085897;28;20664;-74
2023/12/02 17:12:02;;;;;;;2.20;2.00;;;-2.90;99.90;;;;;;5086012;28;20251;-73
2023/12/02 17:14:30;;;;;;;6.50;3.78;;;-2.90;99.90;;;;;;5084706;28;20210;-74
2023/12/02 17:17:35;;;;;;;3.20;2.80;;;-2.90;99.90;;;;;;5085997;28;20204;-74
2023/12/02 17:23:24;;;;;;;4.07;2.83;;;-2.80;99.90;;;;;;5081516;28;20249;-74
2023/12/02 17:25:58;;;;;;;4.03;3.53;;;-2.80;99.90;;;;;;5084137;28;20214;-73